Time;durP1;ratioP1;P1;durP2;ratioP2;P2;SDS_P1;SDS_P2;PMS_P1;PMS_P2;Temp;Humidity;BMP_temperature;BMP_pressure;BME280_temperature;BME280_humidity;BME280_pressure;Samples;Min_cycle;Max_cycle;Signal;HPM_P1;HPM_P2
2022/12/16 00:01:08;;;;;;;7.97;5.97;;;;;;;;;;4923020;29;21026;-63
2022/12/16 00:03:37;;;;;;;7.73;5.73;;;;;;;;;;4911155;29;20473;-62
2022/12/16 00:06:05;;;;;;;8.67;5.80;;;;;;;;;;4922367;29;20506;-62
2022/12/16 00:08:34;;;;;;;11.10;6.77;;;;;;;;;;4923290;29;20452;-62
2022/12/16 00:11:02;;;;;;;9.67;6.77;;;;;;;;;;4922936;29;20455;-62
2022/12/16 00:13:32;;;;;;;7.73;5.70;;;;;;;;;;4922804;29;20836;-62
2022/12/16 00:16:03;;;;;;;11.20;6.60;;;;;;;;;;4923057;29;20486;-62
2022/12/16 00:18:32;;;;;;;9.17;6.20;;;;;;;;;;4922765;29;20951;-63
2022/12/16 00:21:00;;;;;;;9.47;6.60;;;;;;;;;;4920188;29;20626;-62
2022/12/16 00:23:28;;;;;;;8.07;6.33;;;;;;;;;;4922883;29;20467;-62
2022/12/16 00:25:56;;;;;;;9.10;6.07;;;;;;;;;;4922713;29;20488;-63
2022/12/16 00:28:24;;;;;;;10.13;7.73;;;;;;;;;;4922121;29;20550;-62
2022/12/16 00:30:55;;;;;;;9.17;6.90;;;;;;;;;;4924583;29;20556;-62
2022/12/16 00:33:23;;;;;;;9.80;7.07;;;;;;;;;;4922163;29;20511;-63
2022/12/16 00:35:52;;;;;;;10.13;7.33;;;;;;;;;;4922421;29;20511;-62
2022/12/16 00:38:21;;;;;;;10.60;7.37;;;;;;;;;;4922331;29;20447;-62
2022/12/16 00:40:49;;;;;;;10.77;6.67;;;;;;;;;;4922832;29;20462;-62
2022/12/16 00:43:19;;;;;;;10.53;7.33;;;;;;;;;;4922306;29;20873;-62
2022/12/16 00:45:47;;;;;;;12.33;7.63;;;;;;;;;;4922307;29;20878;-62
2022/12/16 00:48:17;;;;;;;13.03;7.87;;;;;;;;;;4922386;29;21043;-62
2022/12/16 00:50:47;;;;;;;12.17;7.57;;;;;;;;;;4922359;29;20452;-62
2022/12/16 00:53:15;;;;;;;11.83;7.90;;;;;;;;;;4922388;29;20934;-62
2022/12/16 00:55:43;;;;;;;11.83;7.70;;;;;;;;;;4922542;29;20487;-63
2022/12/16 00:58:11;;;;;;;14.63;8.33;;;;;;;;;;4921468;29;20459;-62
2022/12/16 01:00:39;;;;;;;12.23;8.60;;;;;;;;;;4922087;29;20814;-62
2022/12/16 01:03:07;;;;;;;12.30;7.97;;;;;;;;;;4913455;29;20514;-62
2022/12/16 01:05:37;;;;;;;14.47;9.20;;;;;;;;;;4922458;29;20522;-62
2022/12/16 01:08:05;;;;;;;13.83;8.67;;;;;;;;;;4922181;29;20494;-62
2022/12/16 01:10:33;;;;;;;13.73;8.47;;;;;;;;;;4921872;29;20547;-62
2022/12/16 01:13:01;;;;;;;15.63;9.43;;;;;;;;;;4921798;29;20803;-62
2022/12/16 01:15:29;;;;;;;14.03;8.97;;;;;;;;;;4920534;29;20543;-63
2022/12/16 01:17:58;;;;;;;14.30;8.43;;;;;;;;;;4920020;29;20487;-62
2022/12/16 01:20:26;;;;;;;17.10;9.63;;;;;;;;;;4920240;29;20530;-62
2022/12/16 01:22:55;;;;;;;15.93;9.67;;;;;;;;;;4920161;29;20475;-62
2022/12/16 01:25:24;;;;;;;19.40;10.67;;;;;;;;;;4920039;29;20894;-63
2022/12/16 01:27:52;;;;;;;16.80;10.37;;;;;;;;;;4920082;29;20491;-63
2022/12/16 01:30:23;;;;;;;20.63;10.80;;;;;;;;;;4920533;29;20447;-62
2022/12/16 01:32:51;;;;;;;16.17;10.63;;;;;;;;;;4920922;29;20579;-63
2022/12/16 01:35:19;;;;;;;17.20;11.03;;;;;;;;;;4921605;29;20452;-63
2022/12/16 01:38:08;;;;;;;17.37;10.57;;;;;;;;;;4921140;29;20940;-62
2022/12/16 01:40:36;;;;;;;21.07;11.77;;;;;;;;;;4921786;29;20543;-63
2022/12/16 01:43:06;;;;;;;18.43;11.40;;;;;;;;;;4921830;29;20487;-63
2022/12/16 01:45:35;;;;;;;19.37;10.83;;;;;;;;;;4921550;29;20494;-63
2022/12/16 01:48:07;;;;;;;18.07;11.53;;;;;;;;;;4921535;29;20491;-62
2022/12/16 01:50:35;;;;;;;17.17;11.13;;;;;;;;;;4921793;29;20448;-63
2022/12/16 01:53:05;;;;;;;22.77;11.97;;;;;;;;;;4921468;29;20482;-63
2022/12/16 01:55:36;;;;;;;21.10;12.27;;;;;;;;;;4921431;29;20448;-63
2022/12/16 01:58:06;;;;;;;20.83;12.37;;;;;;;;;;4921883;29;20479;-63
2022/12/16 02:00:35;;;;;;;19.23;12.40;;;;;;;;;;4921420;29;21019;-63
2022/12/16 02:03:03;;;;;;;17.60;11.33;;;;;;;;;;4913555;29;20515;-62
2022/12/16 02:05:32;;;;;;;21.10;12.23;;;;;;;;;;4916258;29;20479;-63
2022/12/16 02:08:02;;;;;;;21.60;12.70;;;;;;;;;;4921244;29;20519;-63
2022/12/16 02:10:36;;;;;;;20.23;11.50;;;;;;;;;;4921433;29;20527;-62
2022/12/16 02:13:11;;;;;;;21.80;11.63;;;;;;;;;;4921187;29;20982;-62
2022/12/16 02:15:41;;;;;;;21.17;11.77;;;;;;;;;;4921445;29;20451;-62
2022/12/16 02:18:13;;;;;;;22.80;12.30;;;;;;;;;;4921577;29;20540;-62
2022/12/16 02:20:56;;;;;;;25.90;13.53;;;;;;;;;;4921346;29;20530;-62
2022/12/16 02:23:36;;;;;;;22.00;12.23;;;;;;;;;;4921080;29;20574;-62
2022/12/16 02:26:28;;;;;;;21.03;12.13;;;;;;;;;;4921208;29;20526;-63
2022/12/16 02:29:10;;;;;;;24.57;12.83;;;;;;;;;;4911506;29;20519;-63
2022/12/16 02:31:44;;;;;;;21.63;12.33;;;;;;;;;;4920527;29;20550;-62
2022/12/16 02:34:19;;;;;;;19.50;11.90;;;;;;;;;;4912510;29;20471;-62
2022/12/16 02:36:56;;;;;;;28.00;13.50;;;;;;;;;;4920586;29;20463;-62
2022/12/16 02:39:28;;;;;;;22.37;12.73;;;;;;;;;;4921468;29;20557;-62
2022/12/16 02:41:59;;;;;;;27.30;14.40;;;;;;;;;;4920983;29;20633;-62
2022/12/16 02:44:33;;;;;;;27.30;14.77;;;;;;;;;;4921187;29;20554;-62
2022/12/16 02:47:03;;;;;;;35.33;15.47;;;;;;;;;;4925603;29;20951;-62
2022/12/16 02:49:51;;;;;;;27.27;14.37;;;;;;;;;;4921767;29;20475;-62
2022/12/16 02:52:21;;;;;;;28.57;15.63;;;;;;;;;;4920143;29;20466;-62
2022/12/16 02:54:50;;;;;;;27.30;15.33;;;;;;;;;;4924794;29;20487;-62
2022/12/16 02:57:34;;;;;;;31.13;16.63;;;;;;;;;;4924629;29;20506;-62
2022/12/16 03:00:04;;;;;;;30.90;15.37;;;;;;;;;;4924726;29;20452;-62
2022/12/16 03:02:37;;;;;;;36.23;16.33;;;;;;;;;;4920180;29;21054;-62
2022/12/16 03:05:07;;;;;;;27.40;14.40;;;;;;;;;;4916665;29;20491;-62
2022/12/16 03:07:37;;;;;;;38.43;16.17;;;;;;;;;;4934938;29;21062;-62
2022/12/16 03:10:07;;;;;;;32.17;16.47;;;;;;;;;;4924494;29;20534;-62
2022/12/16 03:12:37;;;;;;;33.33;16.57;;;;;;;;;;4924230;29;20550;-62
2022/12/16 03:15:06;;;;;;;35.07;16.63;;;;;;;;;;4924465;29;20476;-62
2022/12/16 03:17:37;;;;;;;34.93;15.73;;;;;;;;;;4917202;29;20492;-62
2022/12/16 03:20:07;;;;;;;36.63;16.90;;;;;;;;;;4924296;29;20452;-62
2022/12/16 03:22:37;;;;;;;35.87;16.23;;;;;;;;;;4923905;29;21050;-63
2022/12/16 03:25:06;;;;;;;32.40;15.47;;;;;;;;;;4924025;29;20531;-62
2022/12/16 03:27:35;;;;;;;32.97;15.43;;;;;;;;;;4924038;29;20574;-62
2022/12/16 03:30:05;;;;;;;33.27;15.97;;;;;;;;;;4924171;29;20444;-62
2022/12/16 03:32:36;;;;;;;31.27;15.13;;;;;;;;;;4923561;29;21035;-62
2022/12/16 03:35:10;;;;;;;27.37;15.07;;;;;;;;;;4923589;29;20460;-62
2022/12/16 03:37:38;;;;;;;29.00;14.40;;;;;;;;;;4934359;29;20465;-62
2022/12/16 03:40:08;;;;;;;28.40;14.80;;;;;;;;;;4923688;29;20447;-62
2022/12/16 03:42:36;;;;;;;31.07;14.17;;;;;;;;;;4923721;29;20476;-62
2022/12/16 03:45:07;;;;;;;32.33;16.10;;;;;;;;;;4923587;29;20471;-62
2022/12/16 03:47:35;;;;;;;29.70;15.13;;;;;;;;;;4923819;29;20455;-62
2022/12/16 03:50:03;;;;;;;29.77;15.23;;;;;;;;;;4923482;29;20545;-62
2022/12/16 03:52:32;;;;;;;32.13;16.77;;;;;;;;;;4923271;29;20479;-62
2022/12/16 03:55:00;;;;;;;33.40;15.97;;;;;;;;;;4914470;29;20448;-62
2022/12/16 03:57:28;;;;;;;33.03;17.17;;;;;;;;;;4921440;29;20947;-62
2022/12/16 03:59:57;;;;;;;30.83;15.37;;;;;;;;;;4914761;29;20472;-62
2022/12/16 04:02:25;;;;;;;32.07;15.27;;;;;;;;;;4914974;29;20450;-62
2022/12/16 04:04:53;;;;;;;31.63;14.63;;;;;;;;;;4918391;29;20487;-62
2022/12/16 04:07:23;;;;;;;27.80;14.00;;;;;;;;;;4914483;29;20523;-62
2022/12/16 04:09:53;;;;;;;37.53;17.10;;;;;;;;;;4913964;29;20495;-62
2022/12/16 04:26:22;;;;;;;26.57;14.73;;;;;;;;;;4923071;29;20443;-61
2022/12/16 04:28:50;;;;;;;27.47;15.10;;;;;;;;;;4922613;29;20519;-62
2022/12/16 04:31:18;;;;;;;29.10;14.33;;;;;;;;;;4923179;29;20456;-62
